createdAt,value
2017-04-26T00:35:27.633Z,7.35
2017-04-26T00:36:27.806Z,8.52
2017-04-26T00:37:27.914Z,4.98
2017-04-26T00:38:28.046Z,6.80
2017-04-26T00:39:28.082Z,5.90
2017-04-26T00:40:28.119Z,4.97
2017-04-26T00:41:28.198Z,4.43
2017-04-26T00:42:28.227Z,5.15
2017-04-26T00:43:28.266Z,8.05
2017-04-26T00:44:28.417Z,5.90
2017-04-26T00:45:28.418Z,4.68
2017-04-26T00:46:28.809Z,6.52
2017-04-26T00:47:28.831Z,5.33
2017-04-26T00:48:28.976Z,5.57
2017-04-26T00:49:28.989Z,5.25
2017-04-26T00:50:29.100Z,5.13
2017-04-26T00:51:29.460Z,7.45
2017-04-26T00:52:29.458Z,5.87
2017-04-26T00:53:29.469Z,6.43
2017-04-26T00:54:29.475Z,7.53
2017-04-26T00:55:29.467Z,6.17
2017-04-26T00:56:29.869Z,4.92
2017-04-26T00:57:29.885Z,8.10
2017-04-26T00:58:30.022Z,5.92
2017-04-26T00:59:30.087Z,7.13
2017-04-26T01:00:30.194Z,6.78
2017-04-26T01:01:30.578Z,6.67
2017-04-26T01:02:30.635Z,5.65
2017-04-26T01:03:30.654Z,8.08
2017-04-26T01:04:30.674Z,5.40
2017-04-26T01:05:30.786Z,9.80
2017-04-26T01:06:31.216Z,6.08
2017-04-26T01:07:31.335Z,10.20
2017-04-26T01:08:31.383Z,8.23
2017-04-26T01:09:31.418Z,11.68
2017-04-26T01:10:31.501Z,7.22
2017-04-26T01:11:31.898Z,7.80
2017-04-26T01:12:32.361Z,8.63
2017-04-26T01:13:32.437Z,6.80
2017-04-26T01:14:32.676Z,7.40
2017-04-26T01:15:32.724Z,10.97
2017-04-26T01:16:33.205Z,9.40
2017-04-26T01:17:33.399Z,6.88
2017-04-26T01:18:33.826Z,6.30
2017-04-26T01:19:33.863Z,6.45
2017-04-26T01:20:33.873Z,6.50
2017-04-26T01:21:34.271Z,10.23
2017-04-26T01:22:34.310Z,7.08
2017-04-26T01:23:34.523Z,6.77
2017-04-26T01:24:34.558Z,13.02
2017-04-26T01:25:34.608Z,6.95
2017-04-26T01:26:34.984Z,9.55
2017-04-26T01:27:35.666Z,8.33
2017-04-26T01:28:35.670Z,6.73
2017-04-26T01:29:35.676Z,7.30
2017-04-26T01:30:36.274Z,7.12
2017-04-26T01:31:37.340Z,7.82
2017-04-26T01:32:37.399Z,8.25
2017-04-26T01:33:38.108Z,6.48
2017-04-26T01:34:38.098Z,7.12
2017-04-26T01:35:38.138Z,6.97
2017-04-26T01:36:38.538Z,6.15
2017-04-26T01:37:38.508Z,7.00
2017-04-26T01:38:38.620Z,7.97
2017-04-26T01:39:38.737Z,7.63
2017-04-26T01:40:38.768Z,7.43
2017-04-26T01:41:40.117Z,7.38
2017-04-26T01:42:40.135Z,8.22
2017-04-26T01:43:40.090Z,7.73
2017-04-26T01:44:41.125Z,8.58
2017-04-26T01:45:41.135Z,8.60
2017-04-26T01:46:41.515Z,7.07
2017-04-26T01:47:41.554Z,9.75
2017-04-26T01:48:41.605Z,7.65
2017-04-26T01:49:42.573Z,8.92
2017-04-26T01:50:42.575Z,7.70
2017-04-26T01:51:43.187Z,8.07
2017-04-26T01:52:43.291Z,7.38
2017-04-26T01:53:43.363Z,9.72
2017-04-26T01:54:43.474Z,11.60
2017-04-26T01:55:43.602Z,8.50
2017-04-26T01:56:44.161Z,11.68
2017-04-26T01:57:44.213Z,9.87
2017-04-26T01:58:44.246Z,6.52
2017-04-26T01:59:44.308Z,7.80
2017-04-26T02:00:44.355Z,7.53
2017-04-26T02:01:44.912Z,9.63
2017-04-26T02:02:44.943Z,8.75
2017-04-26T02:03:45.130Z,8.77
2017-04-26T02:04:45.167Z,8.50
2017-04-26T02:05:45.825Z,8.03
2017-04-26T02:06:46.255Z,7.98
2017-04-26T02:07:46.420Z,7.60
2017-04-26T02:08:46.463Z,8.17
2017-04-26T02:09:46.735Z,11.03
2017-04-26T02:10:46.757Z,8.10
2017-04-26T02:11:47.342Z,8.25
2017-04-26T02:12:47.410Z,10.67
2017-04-26T02:13:47.502Z,9.65
2017-04-26T02:14:47.667Z,7.58
2017-04-26T02:15:47.674Z,9.70
2017-04-26T02:16:48.061Z,8.28
2017-04-26T02:17:48.136Z,9.65
2017-04-26T02:18:48.210Z,9.18
2017-04-26T02:19:48.249Z,8.32
2017-04-26T02:20:48.367Z,7.28
2017-04-26T02:21:48.822Z,8.40
2017-04-26T02:22:48.866Z,11.35
2017-04-26T02:23:48.893Z,8.98
2017-04-26T02:24:48.990Z,8.20
2017-04-26T02:25:49.055Z,7.97
2017-04-26T02:26:49.458Z,9.07
2017-04-26T02:27:49.511Z,10.97
2017-04-26T02:28:49.666Z,8.05
2017-04-26T02:29:49.675Z,7.72
2017-04-26T02:30:49.763Z,10.42
2017-04-26T02:31:50.224Z,7.92
2017-04-26T02:32:50.272Z,7.82
2017-04-26T02:33:51.405Z,14.62
2017-04-26T02:34:51.432Z,9.20
2017-04-26T02:35:51.450Z,7.70
2017-04-26T02:36:51.839Z,8.67
2017-04-26T02:37:51.852Z,7.77
2017-04-26T02:38:51.947Z,7.78
2017-04-26T02:39:51.951Z,9.42
2017-04-26T02:40:52.063Z,8.08
2017-04-26T02:41:52.487Z,8.13
2017-04-26T02:42:52.567Z,8.20
2017-04-26T02:43:52.590Z,8.62
2017-04-26T02:44:52.690Z,7.12
2017-04-26T02:45:52.713Z,7.20
2017-04-26T02:46:53.097Z,8.05
2017-04-26T02:47:53.142Z,8.57
2017-04-26T02:48:53.228Z,12.67
2017-04-26T02:49:53.424Z,11.43
2017-04-26T02:50:53.473Z,13.28
2017-04-26T02:51:53.913Z,7.82
2017-04-26T02:52:54.094Z,10.52
2017-04-26T02:53:54.069Z,7.88
2017-04-26T02:54:54.087Z,7.60
2017-04-26T02:55:54.194Z,8.60
2017-04-26T02:56:54.634Z,11.85
2017-04-26T02:57:54.647Z,7.20
2017-04-26T02:58:54.678Z,8.22
2017-04-26T02:59:54.930Z,7.35
2017-04-26T03:00:54.979Z,9.00
2017-04-26T03:01:55.890Z,12.18
2017-04-26T03:02:55.945Z,8.57
2017-04-26T03:03:55.974Z,11.38
2017-04-26T03:04:55.984Z,8.45
2017-04-26T03:05:56.040Z,14.50
2017-04-26T03:06:56.490Z,8.70
2017-04-26T03:07:56.502Z,10.23
2017-04-26T03:08:56.566Z,8.60
2017-04-26T03:09:56.630Z,10.83
2017-04-26T03:10:56.802Z,8.07
2017-04-26T03:11:57.230Z,11.02
2017-04-26T03:12:57.290Z,8.12
2017-04-26T03:13:57.349Z,8.22
2017-04-26T03:14:57.450Z,9.07
2017-04-26T03:15:57.576Z,12.62
2017-04-26T03:16:58.199Z,8.02
2017-04-26T03:17:58.285Z,9.13
2017-04-26T03:18:58.354Z,9.25
2017-04-26T03:19:58.372Z,10.37
2017-04-26T03:20:58.510Z,7.98
2017-04-26T03:21:58.927Z,8.88
2017-04-26T03:22:59.070Z,8.32
2017-04-26T03:23:59.272Z,10.48
2017-04-26T03:24:59.318Z,8.77
2017-04-26T03:25:59.298Z,9.38
2017-04-26T03:26:59.627Z,9.20
2017-04-26T03:27:59.728Z,8.43
2017-04-26T03:28:59.925Z,9.50
2017-04-26T03:29:59.991Z,9.78
2017-04-26T03:31:00.050Z,8.98
2017-04-26T03:32:00.370Z,8.72
2017-04-26T03:33:00.419Z,9.80
2017-04-26T03:34:00.430Z,12.22
2017-04-26T03:35:00.487Z,10.88
2017-04-26T03:36:00.532Z,8.70
2017-04-26T03:37:00.894Z,7.98
2017-04-26T03:38:00.969Z,9.15
2017-04-26T03:39:01.148Z,9.78
2017-04-26T03:40:01.247Z,7.42
2017-04-26T03:41:01.245Z,10.95
2017-04-26T03:42:02.387Z,10.98
2017-04-26T03:43:02.489Z,13.23
2017-04-26T03:44:02.582Z,9.22
2017-04-26T03:45:02.725Z,10.62
2017-04-26T03:46:02.739Z,9.52
2017-04-26T03:47:03.110Z,9.45
2017-04-26T03:48:03.196Z,10.08
2017-04-26T03:49:03.207Z,8.17
2017-04-26T03:50:03.314Z,9.67
2017-04-26T03:51:03.475Z,8.25
2017-04-26T03:52:03.841Z,14.38
2017-04-26T03:53:03.979Z,14.70
2017-04-26T03:54:04.058Z,9.17
2017-04-26T03:55:04.134Z,8.23
2017-04-26T03:56:04.170Z,9.28
2017-04-26T03:57:04.642Z,9.95
2017-04-26T03:58:04.749Z,8.78
2017-04-26T03:59:04.903Z,10.62
2017-04-26T04:00:05.050Z,11.25
2017-04-26T04:01:05.194Z,9.03
2017-04-26T04:02:06.066Z,10.48
2017-04-26T04:03:06.160Z,12.20
2017-04-26T04:04:06.246Z,11.02
2017-04-26T04:05:06.301Z,13.47
2017-04-26T04:06:06.544Z,11.28
2017-04-26T04:07:06.878Z,15.47
2017-04-26T04:08:06.916Z,13.67
2017-04-26T04:09:07.035Z,12.13
2017-04-26T04:10:07.135Z,11.93
2017-04-26T04:11:07.165Z,9.03
2017-04-26T04:12:07.524Z,11.53
2017-04-26T04:13:07.606Z,10.47
2017-04-26T04:14:07.747Z,11.25
2017-04-26T04:15:07.825Z,10.12
2017-04-26T04:16:07.847Z,8.90
2017-04-26T04:17:08.344Z,12.87
2017-04-26T04:18:08.399Z,8.70
2017-04-26T04:19:08.459Z,10.25
2017-04-26T04:20:08.907Z,9.75
2017-04-26T04:21:08.980Z,12.60
2017-04-26T04:22:09.349Z,9.90
2017-04-26T04:23:09.451Z,10.93
2017-04-26T04:24:09.479Z,9.47
2017-04-26T04:25:09.613Z,16.72
2017-04-26T04:26:09.643Z,15.00
2017-04-26T04:27:09.945Z,11.87
2017-04-26T04:28:10.063Z,9.77
2017-04-26T04:29:10.123Z,13.17
2017-04-26T04:30:10.352Z,13.40
2017-04-26T04:31:10.436Z,10.55
2017-04-26T04:32:10.753Z,10.02
2017-04-26T04:33:10.879Z,9.52
2017-04-26T04:34:10.916Z,8.45
2017-04-26T04:35:11.009Z,10.60
2017-04-26T04:36:11.080Z,11.27
2017-04-26T04:37:11.411Z,10.85
2017-04-26T04:38:11.474Z,9.32
2017-04-26T04:39:11.583Z,9.02
2017-04-26T04:40:11.675Z,15.12
2017-04-26T04:41:11.730Z,13.42
2017-04-26T04:42:12.107Z,11.58
2017-04-26T04:43:12.246Z,12.82
2017-04-26T04:44:12.271Z,11.42
2017-04-26T04:45:12.372Z,15.47
2017-04-26T04:46:12.475Z,10.17
2017-04-26T04:47:12.812Z,11.50
2017-04-26T04:48:12.824Z,9.57
2017-04-26T04:49:12.899Z,15.48
2017-04-26T04:50:13.027Z,12.52
2017-04-26T04:51:13.078Z,9.35
2017-04-26T04:52:13.560Z,13.50
2017-04-26T04:53:13.569Z,12.90
2017-04-26T04:54:13.614Z,11.67
2017-04-26T04:55:13.641Z,13.03
2017-04-26T04:56:13.714Z,9.27
2017-04-26T04:57:14.079Z,11.27
2017-04-26T04:58:14.404Z,13.85
2017-04-26T04:59:14.451Z,12.33
2017-04-26T05:00:14.493Z,11.98
2017-04-26T05:01:14.778Z,11.48
2017-04-26T05:02:15.207Z,12.03
2017-04-26T05:03:15.255Z,10.13
2017-04-26T05:04:15.308Z,8.68
2017-04-26T05:05:15.401Z,11.33
2017-04-26T05:06:15.529Z,9.82
2017-04-26T05:07:15.982Z,9.62
2017-04-26T05:08:16.076Z,12.20
2017-04-26T05:09:16.218Z,12.93
2017-04-26T05:10:16.197Z,13.92
2017-04-26T05:11:16.196Z,14.22
2017-04-26T05:12:16.591Z,10.83
2017-04-26T05:13:16.617Z,10.23
2017-04-26T05:14:16.690Z,10.67
2017-04-26T05:15:16.713Z,13.28
2017-04-26T05:16:16.863Z,12.08
2017-04-26T05:17:17.163Z,10.98
2017-04-26T05:18:17.209Z,13.87
2017-04-26T05:19:17.240Z,11.12
2017-04-26T05:20:17.271Z,16.93
2017-04-26T05:21:17.314Z,13.33
2017-04-26T05:22:17.670Z,15.53
2017-04-26T05:23:17.698Z,9.42
2017-04-26T05:24:17.773Z,15.00
2017-04-26T05:25:17.819Z,12.23
2017-04-26T05:26:17.884Z,9.42
2017-04-26T05:27:18.143Z,9.40
2017-04-26T05:28:18.211Z,9.72
2017-04-26T05:29:18.280Z,10.77
2017-04-26T05:30:18.398Z,12.22
2017-04-26T05:31:18.457Z,9.55
2017-04-26T05:32:18.931Z,13.45
2017-04-26T05:33:19.085Z,10.68
2017-04-26T05:34:19.166Z,14.28
2017-04-26T05:35:19.398Z,9.27
2017-04-26T05:36:19.530Z,11.25
2017-04-26T05:37:19.948Z,11.73
2017-04-26T05:38:20.033Z,10.70
2017-04-26T05:39:20.157Z,9.90
2017-04-26T05:40:20.221Z,11.82
2017-04-26T05:41:20.281Z,12.53
2017-04-26T05:42:20.630Z,11.40
2017-04-26T05:43:20.757Z,11.63
2017-04-26T05:44:20.787Z,13.15
2017-04-26T05:45:20.829Z,13.97
2017-04-26T05:46:20.875Z,12.92
2017-04-26T05:47:21.262Z,14.50
2017-04-26T05:48:21.265Z,15.10
2017-04-26T05:49:21.283Z,11.40
2017-04-26T05:50:21.339Z,10.70
2017-04-26T05:51:21.379Z,11.58
2017-04-26T05:52:21.731Z,11.23
2017-04-26T05:53:21.802Z,11.22
2017-04-26T05:54:21.850Z,12.63
2017-04-26T05:55:21.901Z,9.50
2017-04-26T05:56:21.937Z,10.37
2017-04-26T05:57:22.375Z,10.60
2017-04-26T05:58:22.454Z,13.35
2017-04-26T05:59:22.560Z,9.80
2017-04-26T06:00:22.669Z,10.80
2017-04-26T06:01:23.091Z,11.02
2017-04-26T06:02:23.482Z,15.60
2017-04-26T06:03:26.692Z,10.90
2017-04-26T06:04:26.841Z,11.62
2017-04-26T06:05:26.911Z,11.75
2017-04-26T06:06:26.977Z,13.20
2017-04-26T06:07:27.822Z,14.45
2017-04-26T06:08:27.931Z,12.65
2017-04-26T06:09:28.179Z,11.33
2017-04-26T06:10:28.332Z,11.45
2017-04-26T06:11:28.341Z,11.03
2017-04-26T06:12:28.701Z,14.58
2017-04-26T06:13:28.747Z,12.53
2017-04-26T06:14:28.806Z,18.00
2017-04-26T06:15:28.834Z,13.27
2017-04-26T06:16:29.729Z,12.77
2017-04-26T06:17:30.210Z,11.63
2017-04-26T06:18:30.318Z,14.28
2017-04-26T06:19:30.410Z,12.53
2017-04-26T06:20:30.445Z,13.32
2017-04-26T06:21:30.526Z,10.63
2017-04-26T06:22:30.831Z,14.48
2017-04-26T06:23:30.949Z,11.58
2017-04-26T06:24:31.010Z,12.63
2017-04-26T06:25:31.062Z,13.75
2017-04-26T06:26:31.202Z,15.13
2017-04-26T06:27:31.765Z,14.32
2017-04-26T06:28:31.815Z,11.78
2017-04-26T06:29:32.099Z,14.17
2017-04-26T06:30:32.192Z,14.03
2017-04-26T06:31:32.203Z,13.18
2017-04-26T06:32:33.292Z,14.10
2017-04-26T06:33:33.303Z,12.83
2017-04-26T06:34:33.351Z,12.60
2017-04-26T06:35:33.554Z,15.13
2017-04-26T06:36:33.553Z,12.52
2017-04-26T06:37:33.908Z,12.40
2017-04-26T06:38:33.996Z,14.02
2017-04-26T06:39:34.110Z,9.38
2017-04-26T06:40:34.181Z,9.00
2017-04-26T06:41:34.396Z,14.25
2017-04-26T06:42:34.742Z,9.63
2017-04-26T06:43:34.747Z,12.60
2017-04-26T06:44:34.826Z,10.53
2017-04-26T06:45:35.517Z,13.13
2017-04-26T06:46:35.564Z,9.05
2017-04-26T06:47:35.849Z,12.37
2017-04-26T06:48:35.914Z,13.55
2017-04-26T06:49:36.170Z,9.85
2017-04-26T06:50:36.203Z,9.08
2017-04-26T06:51:36.266Z,8.75
2017-04-26T06:52:36.627Z,12.92
2017-04-26T06:53:36.666Z,7.80
2017-04-26T06:54:36.741Z,7.18
2017-04-26T06:55:36.845Z,10.57
2017-04-26T06:56:36.857Z,7.88
2017-04-26T06:57:37.238Z,9.97
2017-04-26T06:58:37.277Z,6.98
2017-04-26T06:59:37.344Z,6.90
2017-04-26T07:00:37.458Z,11.37
2017-04-26T07:01:37.531Z,12.20
2017-04-26T07:02:43.289Z,9.70
2017-04-26T07:03:43.386Z,10.02
2017-04-26T07:04:43.495Z,9.65
2017-04-26T07:05:43.515Z,6.35
2017-04-26T07:06:43.542Z,13.50
2017-04-26T07:07:43.958Z,8.35
2017-04-26T07:08:44.130Z,7.10
2017-04-26T07:09:44.187Z,7.12
2017-04-26T07:10:44.222Z,10.10
2017-04-26T07:11:44.276Z,6.65
2017-04-26T07:12:44.662Z,7.87
2017-04-26T07:13:44.793Z,7.72
2017-04-26T07:14:45.058Z,9.22
2017-04-26T07:15:45.125Z,8.47
2017-04-26T07:16:45.180Z,7.50
2017-04-26T07:17:46.945Z,7.43
2017-04-26T07:18:46.962Z,6.50
2017-04-26T07:19:47.008Z,9.40
2017-04-26T07:20:47.025Z,7.33
2017-04-26T07:21:47.051Z,5.12
2017-04-26T07:22:47.085Z,7.42
2017-04-26T07:23:47.204Z,5.42
2017-04-26T07:24:47.274Z,6.63
2017-04-26T07:25:47.545Z,7.98
2017-04-26T07:26:47.758Z,7.35
2017-04-26T07:27:48.051Z,5.58
2017-04-26T07:28:48.171Z,6.97
2017-04-26T07:29:48.239Z,5.53
2017-04-26T07:30:48.309Z,5.93
2017-04-26T07:31:48.407Z,5.60
2017-04-26T07:32:48.665Z,5.80
2017-04-26T07:33:48.739Z,5.92
2017-04-26T07:34:49.541Z,4.92
2017-04-26T07:35:49.685Z,5.85
2017-04-26T07:36:49.892Z,5.65
2017-04-26T07:37:50.141Z,5.77
2017-04-26T07:38:50.693Z,8.70
2017-04-26T07:39:50.966Z,6.12
2017-04-26T07:40:51.119Z,6.32
2017-04-26T07:41:51.245Z,4.78
2017-04-26T07:42:51.335Z,4.70
2017-04-26T07:43:51.463Z,6.33
2017-04-26T07:44:51.619Z,6.08
2017-04-26T07:45:51.746Z,4.70
2017-04-26T07:46:51.885Z,4.55
2017-04-26T07:47:52.157Z,4.20
2017-04-26T07:48:52.483Z,5.65
2017-04-26T07:49:52.727Z,7.38
2017-04-26T07:50:52.897Z,4.77
2017-04-26T07:51:53.155Z,11.38
2017-04-26T07:52:53.256Z,6.57
2017-04-26T07:53:53.560Z,5.58
2017-04-26T07:54:53.705Z,6.80
2017-04-26T07:55:54.816Z,6.70
2017-04-26T07:56:54.957Z,9.70
2017-04-26T07:57:55.131Z,5.27
2017-04-26T07:58:55.277Z,6.08
2017-04-26T07:59:55.371Z,7.87
2017-04-26T08:00:55.516Z,9.33
2017-04-26T08:01:55.607Z,4.57
2017-04-26T08:02:55.829Z,9.97
2017-04-26T08:03:55.979Z,6.52
2017-04-26T08:04:56.264Z,7.80
2017-04-26T08:05:56.392Z,6.90
2017-04-26T08:06:56.757Z,4.82
2017-04-26T08:07:56.915Z,3.98
2017-04-26T08:08:57.029Z,6.48
2017-04-26T08:09:57.146Z,4.50
2017-04-26T08:10:57.281Z,2.97
2017-04-26T08:11:57.446Z,5.67
2017-04-26T08:12:57.663Z,2.87
2017-04-26T08:13:57.755Z,10.30
2017-04-26T08:14:57.836Z,4.67
2017-04-26T08:15:58.000Z,2.12
2017-04-26T08:16:58.159Z,4.85
2017-04-26T08:17:58.322Z,4.32
2017-04-26T08:18:58.520Z,3.18
2017-04-26T08:19:58.664Z,4.05
2017-04-26T08:21:00.364Z,3.35
2017-04-26T08:22:00.511Z,2.50
2017-04-26T08:23:00.623Z,4.48
2017-04-26T08:24:00.780Z,3.87
2017-04-26T08:25:00.968Z,3.45
2017-04-26T08:26:01.044Z,7.43
2017-04-26T08:27:01.197Z,3.95
2017-04-26T08:28:01.371Z,4.07
2017-04-26T08:29:01.486Z,4.67
2017-04-26T08:30:01.650Z,7.43
2017-04-26T08:31:01.795Z,2.68
2017-04-26T08:32:01.887Z,3.73
2017-04-26T08:33:02.079Z,3.33
2017-04-26T08:34:02.686Z,3.13
2017-04-26T08:35:09.489Z,7.63
2017-04-26T08:36:09.655Z,6.90
2017-04-26T08:37:09.807Z,5.50
2017-04-26T08:38:09.959Z,3.35
2017-04-26T08:39:10.169Z,6.67
2017-04-26T08:40:10.319Z,4.13
2017-04-26T08:41:10.430Z,8.20
2017-04-26T08:42:10.571Z,3.85
2017-04-26T08:43:10.704Z,5.63
2017-04-26T08:44:10.871Z,6.23
2017-04-26T08:45:10.974Z,4.78
2017-04-26T08:46:11.124Z,5.42
2017-04-26T08:47:17.493Z,2.82
2017-04-26T08:48:17.582Z,6.62
2017-04-26T08:49:17.764Z,5.48
2017-04-26T08:50:17.863Z,4.20
2017-04-26T08:51:18.071Z,3.68
2017-04-26T08:52:18.209Z,5.92
2017-04-26T08:53:18.307Z,4.45
2017-04-26T08:54:18.419Z,3.78
2017-04-26T08:55:18.544Z,4.83
2017-04-26T08:56:18.811Z,3.17
2017-04-26T08:57:19.020Z,3.68
2017-04-26T08:58:19.059Z,6.53
2017-04-26T08:59:19.159Z,5.37
2017-04-26T09:00:19.300Z,3.67
2017-04-26T09:01:19.446Z,5.95
2017-04-26T09:02:19.616Z,2.27
2017-04-26T09:03:19.770Z,4.97
2017-04-26T09:04:19.967Z,6.30
2017-04-26T09:05:20.107Z,2.62
2017-04-26T09:06:20.239Z,2.70
2017-04-26T09:07:20.409Z,7.30
2017-04-26T09:08:20.484Z,3.10
2017-04-26T09:09:20.648Z,5.47
2017-04-26T09:10:20.775Z,4.53
2017-04-26T09:11:20.899Z,5.88
2017-04-26T09:12:21.103Z,5.90
2017-04-26T09:13:21.295Z,6.38
2017-04-26T09:14:21.438Z,3.55
2017-04-26T09:15:21.529Z,3.05
2017-04-26T09:16:21.648Z,2.97
2017-04-26T09:17:21.905Z,8.35
2017-04-26T09:18:22.026Z,1.90
2017-04-26T09:19:22.176Z,3.23
2017-04-26T09:20:22.403Z,4.25
2017-04-26T09:21:22.644Z,2.40
2017-04-26T09:22:22.779Z,2.42
2017-04-26T09:23:23.875Z,4.20
2017-04-26T09:24:24.007Z,7.12
2017-04-26T09:25:24.208Z,4.28
2017-04-26T09:26:24.308Z,6.08
2017-04-26T09:27:24.563Z,2.88
2017-04-26T09:28:24.741Z,4.57
2017-04-26T09:29:24.922Z,3.43
2017-04-26T09:30:25.099Z,3.22
2017-04-26T09:31:25.908Z,2.00
2017-04-26T09:32:26.095Z,6.38
2017-04-26T09:33:26.217Z,3.03
2017-04-26T09:34:26.381Z,5.00
2017-04-26T09:35:26.478Z,2.63
2017-04-26T09:36:26.713Z,2.97
2017-04-26T09:37:26.994Z,6.72
2017-04-26T09:38:27.094Z,8.13
2017-04-26T09:39:27.200Z,3.42
2017-04-26T09:40:27.317Z,3.62
2017-04-26T09:41:27.451Z,2.08
2017-04-26T09:42:27.628Z,5.23
2017-04-26T09:43:27.712Z,8.72
2017-04-26T09:44:27.825Z,2.15
2017-04-26T09:45:28.003Z,6.45
2017-04-26T09:46:28.113Z,2.67
2017-04-26T09:47:28.185Z,4.13
2017-04-26T09:48:28.705Z,6.77
2017-04-26T09:49:28.763Z,5.93
2017-04-26T09:50:28.899Z,3.72
2017-04-26T09:51:28.992Z,4.27
2017-04-26T09:52:29.107Z,3.57
2017-04-26T09:53:32.248Z,4.78
2017-04-26T09:54:32.436Z,5.30
2017-04-26T09:55:32.681Z,4.10
2017-04-26T09:56:32.873Z,3.65
2017-04-26T09:57:39.329Z,5.90
2017-04-26T09:58:39.524Z,3.73
2017-04-26T09:59:39.771Z,1.92
2017-04-26T10:00:39.896Z,9.77
2017-04-26T10:01:40.033Z,4.98
2017-04-26T10:02:40.194Z,3.08
2017-04-26T10:03:40.570Z,3.63
2017-04-26T10:04:41.350Z,8.08
2017-04-26T10:05:41.467Z,4.07
2017-04-26T10:06:42.388Z,7.37
2017-04-26T10:07:42.652Z,7.03
2017-04-26T10:08:42.822Z,4.75
2017-04-26T10:09:42.964Z,2.72
2017-04-26T10:10:43.109Z,3.27
2017-04-26T10:11:43.221Z,6.97
2017-04-26T10:12:43.353Z,1.92
2017-04-26T10:13:43.529Z,5.23
2017-04-26T10:14:45.501Z,3.12
2017-04-26T10:15:46.317Z,3.88
2017-04-26T10:16:46.488Z,4.73
2017-04-26T10:17:46.644Z,3.10
2017-04-26T10:18:47.139Z,4.92
2017-04-26T10:19:47.498Z,2.17
2017-04-26T10:20:47.933Z,4.55
2017-04-26T10:21:48.099Z,3.05
2017-04-26T10:22:48.444Z,3.48
2017-04-26T10:23:48.553Z,3.87
2017-04-26T10:24:49.712Z,3.82
2017-04-26T10:25:49.827Z,7.50
2017-04-26T10:26:50.220Z,1.85
2017-04-26T10:27:50.387Z,5.15
2017-04-26T10:28:50.529Z,2.90
2017-04-26T10:29:51.541Z,5.28
2017-04-26T10:30:51.926Z,4.38
2017-04-26T10:31:53.017Z,2.13
2017-04-26T10:32:54.056Z,5.02
2017-04-26T10:33:54.198Z,3.38
2017-04-26T10:34:56.584Z,4.05
2017-04-26T10:35:57.000Z,3.15
2017-04-26T10:36:57.132Z,3.18
2017-04-26T10:37:57.337Z,4.87
2017-04-26T10:38:57.497Z,3.92
2017-04-26T10:39:57.633Z,3.17
2017-04-26T10:40:57.850Z,6.58
2017-04-26T10:41:58.731Z,5.07
2017-04-26T10:42:59.680Z,4.60
2017-04-26T10:43:59.881Z,3.42
2017-04-26T10:45:00.156Z,6.78
2017-04-26T10:46:00.338Z,2.10
2017-04-26T10:47:00.578Z,3.40
2017-04-26T10:48:00.740Z,2.05
2017-04-26T10:49:01.083Z,3.13
2017-04-26T10:50:01.222Z,4.03
2017-04-26T10:51:01.605Z,4.98
2017-04-26T10:52:02.117Z,3.47
2017-04-26T10:53:03.022Z,5.47
2017-04-26T10:54:05.215Z,3.17
2017-04-26T10:55:06.000Z,3.07
2017-04-26T10:56:06.149Z,6.05
2017-04-26T10:57:07.108Z,5.27
2017-04-26T10:58:07.336Z,5.12
2017-04-26T10:59:07.545Z,5.73
2017-04-26T11:00:07.673Z,4.55
2017-04-26T11:01:07.957Z,4.80
2017-04-26T11:02:08.173Z,3.62
2017-04-26T11:03:08.490Z,1.85
2017-04-26T11:04:08.719Z,5.93
2017-04-26T11:05:08.940Z,3.65
2017-04-26T11:06:09.131Z,4.03
2017-04-26T11:07:09.281Z,2.13
2017-04-26T11:08:09.413Z,2.87
2017-04-26T11:09:10.551Z,2.27
2017-04-26T11:10:10.745Z,6.57
2017-04-26T11:11:11.153Z,2.50
2017-04-26T11:12:11.310Z,4.72
2017-04-26T11:13:12.437Z,3.82
2017-04-26T11:14:12.580Z,6.28
2017-04-26T11:15:12.721Z,6.87
2017-04-26T11:16:12.914Z,5.68
2017-04-26T11:17:13.952Z,2.55
2017-04-26T11:18:14.144Z,2.35
2017-04-26T11:19:14.309Z,4.65
2017-04-26T11:20:14.429Z,4.13
2017-04-26T11:21:14.609Z,2.60
2017-04-26T11:22:15.134Z,6.00
2017-04-26T11:23:16.579Z,2.80
2017-04-26T11:24:16.856Z,2.02
2017-04-26T11:25:17.104Z,3.43
2017-04-26T11:26:17.213Z,2.47
2017-04-26T11:27:17.740Z,5.67
2017-04-26T11:28:17.920Z,2.18
2017-04-26T11:29:18.311Z,6.38
2017-04-26T11:30:18.490Z,2.10
2017-04-26T11:31:18.800Z,4.72
2017-04-26T11:32:19.008Z,2.47
2017-04-26T11:33:19.330Z,1.72
2017-04-26T11:34:19.511Z,3.00
2017-04-26T11:35:22.872Z,2.78
2017-04-26T11:36:23.109Z,6.15
2017-04-26T11:37:23.214Z,4.27
2017-04-26T11:38:23.458Z,2.87
2017-04-26T11:39:23.808Z,3.95
2017-04-26T11:40:23.901Z,3.22
2017-04-26T11:41:24.160Z,6.10
2017-04-26T11:42:24.340Z,3.45
2017-04-26T11:43:24.471Z,2.03
2017-04-26T11:44:24.762Z,4.60
2017-04-26T11:45:24.910Z,2.30
2017-04-26T11:46:24.993Z,2.97
2017-04-26T11:47:25.144Z,2.30
2017-04-26T11:48:25.249Z,4.23
2017-04-26T11:49:25.351Z,4.03
2017-04-26T11:50:25.529Z,4.35
2017-04-26T11:51:25.688Z,6.20
2017-04-26T11:52:25.799Z,2.98
2017-04-26T11:53:25.982Z,2.43
2017-04-26T11:54:26.080Z,3.00
2017-04-26T11:55:26.175Z,5.80
2017-04-26T11:56:26.294Z,2.53
2017-04-26T11:57:26.484Z,1.80
2017-04-26T11:58:26.600Z,3.78
2017-04-26T11:59:26.778Z,4.30
2017-04-26T12:00:26.892Z,4.60
2017-04-26T12:01:27.048Z,6.02
2017-04-26T12:02:27.644Z,6.28
2017-04-26T12:03:27.761Z,4.10
2017-04-26T12:04:27.882Z,2.05
2017-04-26T12:05:27.940Z,3.05
2017-04-26T12:06:28.046Z,2.15
2017-04-26T12:07:28.247Z,2.47
2017-04-26T12:08:28.404Z,2.42
2017-04-26T12:09:28.525Z,3.00
2017-04-26T12:10:28.600Z,3.03
2017-04-26T12:11:28.641Z,5.03
2017-04-26T12:12:28.797Z,3.22
2017-04-26T12:13:28.947Z,3.45
2017-04-26T12:14:29.334Z,7.13
2017-04-26T12:15:29.455Z,2.68
2017-04-26T12:16:29.656Z,2.55
2017-04-26T12:17:29.810Z,2.02
2017-04-26T12:18:29.920Z,2.38
2017-04-26T12:19:30.015Z,2.42
2017-04-26T12:20:30.106Z,4.77
2017-04-26T12:21:31.120Z,5.22
2017-04-26T12:22:31.229Z,3.47
2017-04-26T12:23:31.557Z,3.20
2017-04-26T12:24:31.641Z,4.23
2017-04-26T12:25:31.824Z,2.72
2017-04-26T12:26:31.924Z,3.53
2017-04-26T12:27:32.104Z,6.63
2017-04-26T12:28:32.290Z,2.75
2017-04-26T12:29:32.363Z,3.97
2017-04-26T12:30:32.576Z,3.45
2017-04-26T12:31:32.676Z,2.27
2017-04-26T12:32:32.897Z,3.27
2017-04-26T12:33:33.249Z,2.65
2017-04-26T12:34:33.501Z,2.52
2017-04-26T12:35:33.594Z,1.93
2017-04-26T12:36:33.745Z,2.57
2017-04-26T12:37:33.843Z,2.50
2017-04-26T12:38:34.107Z,4.08
2017-04-26T12:39:34.260Z,2.25
2017-04-26T12:40:34.442Z,3.08
2017-04-26T12:41:34.595Z,2.68
2017-04-26T12:42:34.802Z,2.17
2017-04-26T12:43:34.923Z,3.95
2017-04-26T12:44:35.042Z,2.12
2017-04-26T12:45:35.096Z,2.87
2017-04-26T12:46:35.202Z,3.53
2017-04-26T12:47:35.443Z,3.42
2017-04-26T12:48:35.532Z,2.53
2017-04-26T12:49:35.591Z,4.08
2017-04-26T12:50:35.777Z,2.10
2017-04-26T12:51:35.872Z,2.58
2017-04-26T12:52:36.004Z,2.78
2017-04-26T12:53:36.185Z,4.07
2017-04-26T12:54:36.295Z,2.82
2017-04-26T12:55:36.376Z,2.92
2017-04-26T12:56:36.628Z,3.58
2017-04-26T12:57:36.720Z,4.03
2017-04-26T12:58:36.830Z,3.40
2017-04-26T12:59:36.946Z,3.80
2017-04-26T13:00:37.177Z,3.72
2017-04-26T13:01:37.358Z,2.17
2017-04-26T13:02:37.523Z,2.25
2017-04-26T13:03:37.792Z,2.82
2017-04-26T13:04:38.029Z,3.75
2017-04-26T13:05:38.133Z,3.57
2017-04-26T13:06:38.442Z,2.50
2017-04-26T13:07:38.544Z,1.95
2017-04-26T13:08:38.645Z,2.82
2017-04-26T13:09:38.830Z,1.90
2017-04-26T13:10:38.954Z,2.43
2017-04-26T13:11:39.128Z,3.55
2017-04-26T13:12:39.284Z,1.87
2017-04-26T13:13:39.357Z,2.08
2017-04-26T13:14:39.544Z,2.47
2017-04-26T13:15:39.680Z,2.27
2017-04-26T13:16:39.816Z,1.73
2017-04-26T13:17:40.708Z,4.17
2017-04-26T13:18:40.802Z,3.35
2017-04-26T13:19:40.844Z,1.92
2017-04-26T13:20:40.992Z,3.18
2017-04-26T13:21:41.087Z,2.90
2017-04-26T13:22:41.338Z,2.10
2017-04-26T13:23:41.424Z,2.75
2017-04-26T13:24:41.532Z,2.28
2017-04-26T13:25:41.647Z,1.92
2017-04-26T13:26:42.021Z,2.65
2017-04-26T13:27:42.104Z,2.17
2017-04-26T13:28:42.277Z,3.33
2017-04-26T13:29:42.411Z,1.87
2017-04-26T13:30:42.560Z,2.90
2017-04-26T13:31:42.668Z,3.50
2017-04-26T13:32:42.827Z,2.05
2017-04-26T13:33:42.964Z,2.68
2017-04-26T13:34:43.078Z,7.45
2017-04-26T13:35:43.167Z,2.17
2017-04-26T13:36:43.257Z,3.57
2017-04-26T13:37:43.407Z,5.57
2017-04-26T13:38:43.626Z,2.75
2017-04-26T13:39:43.693Z,3.40
2017-04-26T13:40:45.096Z,3.43
2017-04-26T13:41:45.231Z,4.70
2017-04-26T13:42:45.552Z,7.57
2017-04-26T13:43:45.623Z,3.22
2017-04-26T13:44:45.851Z,3.05
2017-04-26T13:45:46.997Z,3.95
2017-04-26T13:46:47.131Z,3.55
2017-04-26T13:47:47.221Z,2.95
2017-04-26T13:48:47.368Z,3.32
2017-04-26T13:49:47.545Z,2.87
2017-04-26T13:50:47.674Z,2.50